createdAt,value
2022-08-19T00:00:11.886Z,98608.63
2022-08-19T00:03:00.117Z,98603.05
2022-08-19T00:05:28.391Z,98605.28
2022-08-19T00:07:56.666Z,98606.36
2022-08-19T00:10:25.576Z,98603.17
2022-08-19T00:12:53.943Z,98605.23
2022-08-19T00:15:23.639Z,98601.86
2022-08-19T00:17:51.931Z,98599.40
2022-08-19T00:20:22.905Z,98599.85
2022-08-19T00:22:51.418Z,98597.71
2022-08-19T00:25:29.862Z,98592.35
2022-08-19T00:28:00.599Z,98599.20
2022-08-19T00:30:29.543Z,98596.91
2022-08-19T00:32:58.809Z,98605.27
2022-08-19T00:35:28.490Z,98606.03
2022-08-19T00:37:57.297Z,98604.77
2022-08-19T00:40:26.680Z,98611.43
2022-08-19T00:42:55.069Z,98609.95
2022-08-19T00:45:27.061Z,98605.32
2022-08-19T00:47:55.354Z,98600.75
2022-08-19T00:50:24.238Z,98597.21
2022-08-19T00:52:53.780Z,98597.62
2022-08-19T00:55:26.246Z,98597.65
2022-08-19T00:57:59.302Z,98593.07
2022-08-19T01:00:30.078Z,98592.58
2022-08-19T01:02:58.797Z,98598.54
2022-08-19T01:05:29.935Z,98598.16
2022-08-19T01:08:02.108Z,98602.70
2022-08-19T01:10:36.646Z,98601.45
2022-08-19T01:13:06.116Z,98605.45
2022-08-19T01:15:41.259Z,98602.22
2022-08-19T01:18:12.817Z,98599.39
2022-08-19T01:20:43.089Z,98597.41
2022-08-19T01:23:11.914Z,98592.61
2022-08-19T01:25:52.419Z,98593.20
2022-08-19T01:28:34.068Z,98588.31
2022-08-19T01:31:27.009Z,98587.33
2022-08-19T01:33:58.514Z,98580.66
2022-08-19T01:36:42.939Z,98575.39
2022-08-19T01:39:14.422Z,98574.13
2022-08-19T01:41:42.943Z,98579.55
2022-08-19T01:44:17.884Z,98574.73
2022-08-19T01:46:49.348Z,98572.13
2022-08-19T01:49:22.993Z,98574.53
2022-08-19T01:51:51.861Z,98573.48
2022-08-19T01:54:27.566Z,98572.07
2022-08-19T01:57:04.759Z,98575.23
2022-08-19T01:59:34.201Z,98573.02
2022-08-19T02:02:02.821Z,98570.53
2022-08-19T02:04:31.424Z,98570.92
2022-08-19T02:06:59.823Z,98571.75
2022-08-19T02:09:28.110Z,98571.77
2022-08-19T02:11:56.891Z,98572.26
2022-08-19T02:14:25.264Z,98570.70
2022-08-19T02:16:53.559Z,98574.15
2022-08-19T02:19:21.790Z,98569.63
2022-08-19T02:21:50.218Z,98567.51
2022-08-19T02:24:18.517Z,98566.11
2022-08-19T02:26:46.796Z,98565.55
2022-08-19T02:29:15.133Z,98557.29
2022-08-19T02:31:43.441Z,98557.29
2022-08-19T02:34:11.658Z,98558.06
2022-08-19T02:36:42.566Z,98560.84
2022-08-19T02:39:11.569Z,98565.45
2022-08-19T02:41:39.794Z,98566.50
2022-08-19T02:44:28.524Z,98569.59
2022-08-19T02:46:56.561Z,98565.33
2022-08-19T02:49:24.895Z,98565.55
2022-08-19T02:51:53.130Z,98561.61
2022-08-19T02:54:21.435Z,98561.34
2022-08-19T02:56:49.650Z,98562.20
2022-08-19T02:59:17.838Z,98559.52
2022-08-19T03:01:49.462Z,98555.92
2022-08-19T03:04:17.748Z,98556.38
2022-08-19T03:06:48.105Z,98563.05
2022-08-19T03:09:17.878Z,98563.42
2022-08-19T03:11:46.523Z,98565.23
2022-08-19T03:14:17.980Z,98567.98
2022-08-19T03:16:51.295Z,98571.31
2022-08-19T03:19:22.351Z,98567.25
2022-08-19T03:21:51.555Z,98569.38
2022-08-19T03:24:21.324Z,98570.42
2022-08-19T03:26:52.977Z,98574.73
2022-08-19T03:29:30.347Z,98586.31
2022-08-19T03:32:02.172Z,98589.35
2022-08-19T03:34:37.375Z,98581.48
2022-08-19T03:37:13.451Z,98588.98
2022-08-19T03:39:43.409Z,98593.22
2022-08-19T03:42:38.765Z,98598.46
2022-08-19T03:45:00.981Z,98600.49
2022-08-19T03:47:29.271Z,98608.70
2022-08-19T03:49:57.570Z,98611.10
2022-08-19T03:52:25.860Z,98612.27
2022-08-19T03:54:54.184Z,98613.69
2022-08-19T03:57:27.853Z,98616.75
2022-08-19T04:00:12.577Z,98613.65
2022-08-19T04:02:58.220Z,98614.15
2022-08-19T04:05:30.240Z,98612.60
2022-08-19T04:08:00.465Z,98608.40
2022-08-19T04:10:29.778Z,98605.48
2022-08-19T04:12:58.158Z,98608.09
2022-08-19T04:15:27.008Z,98607.80
2022-08-19T04:17:55.894Z,98605.86
2022-08-19T04:20:24.251Z,98606.84
2022-08-19T04:22:52.763Z,98609.90
2022-08-19T04:25:21.329Z,98612.79
2022-08-19T04:27:49.599Z,98610.53
2022-08-19T04:30:18.912Z,98611.61
2022-08-19T04:32:47.245Z,98617.23
2022-08-19T04:35:16.796Z,98617.45
2022-08-19T04:37:46.905Z,98616.60
2022-08-19T04:40:34.150Z,98613.21
2022-08-19T04:43:02.526Z,98612.48
2022-08-19T04:45:39.609Z,98606.41
2022-08-19T04:48:26.646Z,98598.39
2022-08-19T04:50:59.399Z,98592.73
2022-08-19T04:53:37.862Z,98587.33
2022-08-19T04:56:12.884Z,98584.48
2022-08-19T04:58:43.788Z,98589.30
2022-08-19T05:01:19.385Z,98590.70
2022-08-19T05:03:48.510Z,98593.86
2022-08-19T05:06:19.065Z,98597.61
2022-08-19T05:08:47.516Z,98596.70
2022-08-19T05:11:15.718Z,98593.61
2022-08-19T05:13:45.451Z,98592.35
2022-08-19T05:16:14.327Z,98591.83
2022-08-19T05:19:01.554Z,98590.02
2022-08-19T05:21:49.270Z,98589.08
2022-08-19T05:24:19.803Z,98586.80
2022-08-19T05:26:50.649Z,98584.08
2022-08-19T05:29:21.370Z,98592.58
2022-08-19T05:31:51.653Z,98601.31
2022-08-19T05:34:23.332Z,98607.59
2022-08-19T05:36:58.155Z,98610.85
2022-08-19T05:39:29.780Z,98612.34
2022-08-19T05:42:00.670Z,98623.46
2022-08-19T05:44:32.517Z,98631.53
2022-08-19T05:47:03.396Z,98631.44
2022-08-19T05:49:33.306Z,98633.96
2022-08-19T05:52:11.984Z,98635.16
2022-08-19T05:54:42.705Z,98641.73
2022-08-19T05:57:11.756Z,98640.56
2022-08-19T05:59:43.243Z,98645.27
2022-08-19T06:02:11.797Z,98651.30
2022-08-19T06:04:40.523Z,98651.59
2022-08-19T06:07:12.330Z,98652.05
2022-08-19T06:09:43.583Z,98650.55
2022-08-19T06:12:12.239Z,98650.67
2022-08-19T06:14:42.604Z,98651.17
2022-08-19T06:17:11.064Z,98655.44
2022-08-19T06:19:41.082Z,98654.04
2022-08-19T06:22:09.526Z,98655.17
2022-08-19T06:24:37.790Z,98650.30
2022-08-19T06:27:09.113Z,98647.79
2022-08-19T06:29:39.581Z,98647.58
2022-08-19T06:32:07.869Z,98638.48
2022-08-19T06:34:36.331Z,98633.37
2022-08-19T06:37:06.769Z,98636.30
2022-08-19T06:39:39.780Z,98635.48
2022-08-19T06:42:11.157Z,98634.14
2022-08-19T06:44:43.285Z,98634.89
2022-08-19T06:47:23.542Z,98636.20
2022-08-19T06:50:03.731Z,98639.19
2022-08-19T06:52:36.781Z,98641.93
2022-08-19T06:55:07.472Z,98648.04
2022-08-19T06:57:35.777Z,98647.48
2022-08-19T07:00:09.721Z,98643.30
2022-08-19T07:02:48.095Z,98645.63
2022-08-19T07:05:23.978Z,98652.23
2022-08-19T07:07:52.358Z,98656.50
2022-08-19T07:10:20.962Z,98658.43
2022-08-19T07:12:51.298Z,98659.45
2022-08-19T07:15:22.503Z,98653.04
2022-08-19T07:17:52.640Z,98651.77
2022-08-19T07:20:21.482Z,98657.31
2022-08-19T07:22:50.582Z,98660.38
2022-08-19T07:25:22.020Z,98656.12
2022-08-19T07:28:01.485Z,98655.58
2022-08-19T07:30:30.468Z,98655.43
2022-08-19T07:32:59.892Z,98648.80
2022-08-19T07:35:33.360Z,98657.18
2022-08-19T07:38:03.761Z,98662.17
2022-08-19T07:40:32.090Z,98665.39
2022-08-19T07:43:00.778Z,98667.79
2022-08-19T07:45:29.732Z,98672.55
2022-08-19T07:47:58.979Z,98677.98
2022-08-19T07:50:27.887Z,98678.71
2022-08-19T07:52:56.304Z,98678.77
2022-08-19T07:55:40.310Z,98680.84
2022-08-19T07:58:15.577Z,98677.58
2022-08-19T08:00:47.082Z,98676.02
2022-08-19T08:03:18.502Z,98677.33
2022-08-19T08:06:05.886Z,98673.83
2022-08-19T08:08:53.106Z,98675.23
2022-08-19T08:11:23.864Z,98673.94
2022-08-19T08:14:00.733Z,98679.96
2022-08-19T08:16:39.477Z,98677.91
2022-08-19T08:19:20.472Z,98676.22
2022-08-19T08:21:56.715Z,98676.63
2022-08-19T08:24:28.385Z,98678.56
2022-08-19T08:27:00.091Z,98682.03
2022-08-19T08:29:34.940Z,98684.19
2022-08-19T08:32:14.066Z,98687.33
2022-08-19T08:34:44.184Z,98694.72
2022-08-19T08:37:12.536Z,98694.94
2022-08-19T08:39:44.831Z,98695.90
2022-08-19T08:42:33.716Z,98694.70
2022-08-19T08:45:08.090Z,98694.61
2022-08-19T08:47:42.057Z,98694.01
2022-08-19T08:50:20.484Z,98693.68
2022-08-19T08:52:53.669Z,98698.14
2022-08-19T08:55:25.938Z,98692.58
2022-08-19T08:58:01.053Z,98689.40
2022-08-19T09:00:35.265Z,98683.13
2022-08-19T09:03:07.035Z,98687.42
2022-08-19T09:06:12.155Z,98680.66
2022-08-19T09:09:11.768Z,98683.96
2022-08-19T09:12:18.944Z,98688.38
2022-08-19T09:14:55.368Z,98685.32
2022-08-19T09:17:32.265Z,98685.65
2022-08-19T09:20:14.300Z,98686.48
2022-08-19T09:22:45.416Z,98687.54
2022-08-19T09:25:17.570Z,98684.15
2022-08-19T09:27:55.485Z,98682.75
2022-08-19T09:30:34.957Z,98681.88
2022-08-19T09:33:03.404Z,98687.80
2022-08-19T09:35:32.301Z,98687.39
2022-08-19T09:38:18.600Z,98679.77
2022-08-19T09:40:46.920Z,98677.84
2022-08-19T09:43:15.062Z,98674.27
2022-08-19T09:46:02.467Z,98672.59
2022-08-19T09:48:30.527Z,98669.83
2022-08-19T09:51:07.670Z,98669.10
2022-08-19T09:53:40.256Z,98672.52
2022-08-19T09:56:09.418Z,98677.09
2022-08-19T09:58:38.715Z,98672.24
2022-08-19T10:01:08.189Z,98674.48
2022-08-19T10:03:37.421Z,98672.94
2022-08-19T10:06:14.803Z,98674.20
2022-08-19T10:08:50.455Z,98675.50
2022-08-19T10:11:27.860Z,98669.89
2022-08-19T10:14:06.851Z,98664.88
2022-08-19T10:16:39.604Z,98664.88
2022-08-19T10:19:08.140Z,98660.28
2022-08-19T10:21:36.946Z,98654.25
2022-08-19T10:24:06.357Z,98654.33
2022-08-19T10:26:38.126Z,98651.64
2022-08-19T10:29:09.217Z,98652.25
2022-08-19T10:32:00.858Z,98653.67
2022-08-19T10:34:28.217Z,98657.64
2022-08-19T10:37:00.599Z,98657.33
2022-08-19T10:39:43.077Z,98654.55
2022-08-19T10:42:14.087Z,98653.91
2022-08-19T10:44:42.768Z,98654.33
2022-08-19T10:47:21.972Z,98654.10
2022-08-19T10:50:13.801Z,98652.95
2022-08-19T10:52:49.836Z,98652.56
2022-08-19T10:55:51.344Z,98651.99
2022-08-19T10:58:23.591Z,98648.27
2022-08-19T11:00:57.371Z,98649.28
2022-08-19T11:03:28.856Z,98647.39
2022-08-19T11:06:06.449Z,98642.73
2022-08-19T11:08:37.893Z,98636.39
2022-08-19T11:11:08.167Z,98634.08
2022-08-19T11:13:40.532Z,98631.11
2022-08-19T11:16:14.437Z,98633.30
2022-08-19T11:18:47.911Z,98636.77
2022-08-19T11:21:29.412Z,98636.95
2022-08-19T11:24:00.081Z,98633.05
2022-08-19T11:26:30.444Z,98634.59
2022-08-19T11:28:59.843Z,98632.64
2022-08-19T11:31:31.836Z,98632.15
2022-08-19T11:34:02.608Z,98631.88
2022-08-19T11:36:32.468Z,98630.11
2022-08-19T11:39:01.832Z,98631.69
2022-08-19T11:41:29.956Z,98629.10
2022-08-19T11:43:58.272Z,98626.61
2022-08-19T11:46:30.467Z,98621.09
2022-08-19T11:49:01.528Z,98616.90
2022-08-19T11:51:30.712Z,98612.92
2022-08-19T11:54:00.513Z,98608.95
2022-08-19T11:56:29.493Z,98605.73
2022-08-19T11:58:58.088Z,98603.15
2022-08-19T12:01:27.738Z,98603.30
2022-08-19T12:03:57.623Z,98606.11
2022-08-19T12:06:32.751Z,98604.45
2022-08-19T12:09:05.856Z,98603.67
2022-08-19T12:11:34.417Z,98601.05
2022-08-19T12:14:03.072Z,98604.09
2022-08-19T12:16:33.851Z,98599.70
2022-08-19T12:19:05.561Z,98594.27
2022-08-19T12:21:36.480Z,98591.38
2022-08-19T12:24:06.841Z,98591.46
2022-08-19T12:26:35.841Z,98595.00
2022-08-19T12:29:24.370Z,98593.60
2022-08-19T12:32:02.302Z,98594.23
2022-08-19T12:34:33.829Z,98594.76
2022-08-19T12:37:04.159Z,98600.23
2022-08-19T12:39:42.877Z,98601.55
2022-08-19T12:42:14.663Z,98604.19
2022-08-19T12:44:43.707Z,98601.20
2022-08-19T12:47:15.413Z,98600.38
2022-08-19T12:49:53.548Z,98597.27
2022-08-19T12:52:26.227Z,98600.98
2022-08-19T12:54:59.002Z,98599.53
2022-08-19T12:57:32.431Z,98596.38
2022-08-19T13:00:10.090Z,98596.47
2022-08-19T13:02:47.842Z,98595.27
2022-08-19T13:05:21.079Z,98596.62
2022-08-19T13:07:51.111Z,98591.00
2022-08-19T13:10:21.504Z,98592.10
2022-08-19T13:12:51.681Z,98588.23
2022-08-19T13:15:23.834Z,98587.63
2022-08-19T13:17:54.897Z,98586.00
2022-08-19T13:20:24.811Z,98578.73
2022-08-19T13:22:54.548Z,98574.38
2022-08-19T13:25:22.763Z,98571.30
2022-08-19T13:27:51.893Z,98570.00
2022-08-19T13:30:39.610Z,98571.05
2022-08-19T13:33:17.700Z,98576.64
2022-08-19T13:35:49.537Z,98578.70
2022-08-19T13:38:21.568Z,98577.76
2022-08-19T13:40:53.038Z,98582.51
2022-08-19T13:43:24.344Z,98581.36
2022-08-19T13:45:57.249Z,98575.11
2022-08-19T13:48:29.897Z,98571.92
2022-08-19T13:50:58.080Z,98564.19
2022-08-19T13:53:26.319Z,98564.80
2022-08-19T13:55:54.989Z,98562.86
2022-08-19T13:58:23.718Z,98560.26
2022-08-19T14:00:52.428Z,98560.80
2022-08-19T14:03:20.842Z,98561.77
2022-08-19T14:05:49.052Z,98567.73
2022-08-19T14:08:17.784Z,98563.77
2022-08-19T14:10:46.475Z,98562.57
2022-08-19T14:13:17.419Z,98568.11
2022-08-19T14:15:46.617Z,98566.81
2022-08-19T14:18:16.993Z,98562.35
2022-08-19T14:20:45.523Z,98557.70
2022-08-19T14:23:14.773Z,98553.57
2022-08-19T14:25:43.968Z,98550.91
2022-08-19T14:28:12.101Z,98547.19
2022-08-19T14:30:40.334Z,98542.99
2022-08-19T14:33:09.536Z,98543.14
2022-08-19T14:35:38.119Z,98543.16
2022-08-19T14:38:07.704Z,98547.63
2022-08-19T14:40:35.985Z,98550.94
2022-08-19T14:43:05.519Z,98546.17
2022-08-19T14:45:37.152Z,98550.10
2022-08-19T14:48:08.138Z,98548.21
2022-08-19T14:50:46.363Z,98551.95
2022-08-19T14:53:16.751Z,98549.73
2022-08-19T14:55:47.207Z,98547.11
2022-08-19T14:58:29.042Z,98547.99
2022-08-19T15:01:02.479Z,98547.19
2022-08-19T15:03:33.012Z,98549.27
2022-08-19T15:06:03.824Z,98546.85
2022-08-19T15:08:35.079Z,98547.30
2022-08-19T15:11:04.131Z,98540.46
2022-08-19T15:13:32.307Z,98534.52
2022-08-19T15:16:04.347Z,98531.56
2022-08-19T15:18:33.621Z,98529.36
2022-08-19T15:21:02.627Z,98528.66
2022-08-19T15:23:31.063Z,98528.60
2022-08-19T15:25:59.247Z,98524.63
2022-08-19T15:28:27.495Z,98524.69
2022-08-19T15:30:55.576Z,98529.77
2022-08-19T15:33:23.914Z,98526.36
2022-08-19T15:35:52.086Z,98530.70
2022-08-19T15:38:22.361Z,98523.89
2022-08-19T15:40:51.403Z,98514.21
2022-08-19T15:43:23.784Z,98508.02
2022-08-19T15:45:51.981Z,98505.52
2022-08-19T15:48:20.083Z,98501.63
2022-08-19T15:50:48.152Z,98498.05
2022-08-19T15:53:16.287Z,98496.67
2022-08-19T15:55:46.096Z,98501.49
2022-08-19T15:58:34.352Z,98505.18
2022-08-19T16:01:26.875Z,98500.91
2022-08-19T16:04:15.647Z,98506.38
2022-08-19T16:06:54.241Z,98504.69
2022-08-19T16:09:29.039Z,98504.72
2022-08-19T16:12:02.144Z,98499.86
2022-08-19T16:14:33.563Z,98499.05
2022-08-19T16:17:02.631Z,98499.67
2022-08-19T16:19:32.596Z,98504.68
2022-08-19T16:22:00.815Z,98509.00
2022-08-19T16:24:29.332Z,98509.29
2022-08-19T16:26:57.426Z,98511.05
2022-08-19T16:29:33.923Z,98511.33
2022-08-19T16:32:06.408Z,98512.02
2022-08-19T16:34:34.629Z,98503.02
2022-08-19T16:37:03.291Z,98498.46
2022-08-19T16:39:31.578Z,98497.13
2022-08-19T16:41:59.988Z,98494.99
2022-08-19T16:44:29.879Z,98495.58
2022-08-19T16:46:59.758Z,98499.61
2022-08-19T16:49:53.210Z,98504.05
2022-08-19T16:52:19.932Z,98510.42
2022-08-19T16:54:48.907Z,98504.06
2022-08-19T16:57:17.047Z,98504.37
2022-08-19T16:59:48.874Z,98505.24
2022-08-19T17:02:19.356Z,98506.08
2022-08-19T17:04:57.284Z,98507.05
2022-08-19T17:07:29.433Z,98514.23
2022-08-19T17:10:04.774Z,98521.13
2022-08-19T17:12:33.215Z,98525.45
2022-08-19T17:15:02.821Z,98533.98
2022-08-19T17:17:31.978Z,98537.98
2022-08-19T17:20:02.293Z,98532.60
2022-08-19T17:22:30.504Z,98536.11
2022-08-19T17:24:58.749Z,98534.89
2022-08-19T17:27:31.321Z,98536.46
2022-08-19T17:30:03.011Z,98538.59
2022-08-19T17:32:35.247Z,98540.54
2022-08-19T17:35:04.237Z,98538.58
2022-08-19T17:37:33.661Z,98541.40
2022-08-19T17:40:05.056Z,98541.55
2022-08-19T17:42:33.773Z,98536.09
2022-08-19T17:45:02.332Z,98535.75
2022-08-19T17:47:31.416Z,98532.95
2022-08-19T17:49:59.956Z,98537.63
2022-08-19T17:52:28.184Z,98542.81
2022-08-19T17:54:56.580Z,98544.35
2022-08-19T17:57:25.085Z,98553.38
2022-08-19T17:59:53.939Z,98552.63
2022-08-19T18:02:22.439Z,98559.61
2022-08-19T18:04:51.039Z,98562.73
2022-08-19T18:07:21.683Z,98560.71
2022-08-19T18:09:52.607Z,98563.47
2022-08-19T18:12:24.765Z,98567.45
2022-08-19T18:14:52.916Z,98572.33
2022-08-19T18:17:23.457Z,98576.40
2022-08-19T18:19:51.705Z,98578.14
2022-08-19T18:22:31.399Z,98576.59
2022-08-19T18:25:02.100Z,98573.65
2022-08-19T18:27:31.207Z,98577.60
2022-08-19T18:30:00.101Z,98573.98
2022-08-19T18:32:34.146Z,98574.45
2022-08-19T18:35:05.855Z,98575.99
2022-08-19T18:37:33.963Z,98579.83
2022-08-19T18:40:20.855Z,98583.02
2022-08-19T18:43:07.996Z,98582.73
2022-08-19T18:45:54.923Z,98579.67
2022-08-19T18:48:42.010Z,98573.38
2022-08-19T18:51:11.988Z,98570.31
2022-08-19T18:53:42.835Z,98567.90
2022-08-19T18:56:14.290Z,98568.07
2022-08-19T18:58:43.812Z,98570.39
2022-08-19T19:01:21.969Z,98571.45
2022-08-19T19:03:53.570Z,98573.21
2022-08-19T19:06:29.827Z,98576.33
2022-08-19T19:08:58.240Z,98579.56
2022-08-19T19:11:34.000Z,98580.75
2022-08-19T19:14:05.704Z,98579.61
2022-08-19T19:16:34.247Z,98577.77
2022-08-19T19:19:03.075Z,98571.52
2022-08-19T19:21:34.484Z,98575.91
2022-08-19T19:24:03.715Z,98576.44
2022-08-19T19:26:32.210Z,98581.02
2022-08-19T19:29:00.564Z,98595.43
2022-08-19T19:31:29.300Z,98602.16
2022-08-19T19:33:58.107Z,98603.29
2022-08-19T19:36:26.775Z,98610.48
2022-08-19T19:38:55.605Z,98615.73
2022-08-19T19:41:24.695Z,98619.88
2022-08-19T19:44:29.808Z,98623.16
2022-08-19T19:46:49.700Z,98624.23
2022-08-19T19:49:18.137Z,98623.23
2022-08-19T19:51:46.676Z,98625.39
2022-08-19T19:54:15.115Z,98629.43
2022-08-19T19:56:45.126Z,98637.02
2022-08-19T19:59:13.643Z,98651.05
2022-08-19T20:01:46.064Z,98680.66
2022-08-19T20:04:16.970Z,98695.39
2022-08-19T20:06:46.831Z,98701.62
2022-08-19T20:09:19.894Z,98701.91
2022-08-19T20:11:55.038Z,98696.55
2022-08-19T20:14:26.988Z,98688.27
2022-08-19T20:16:56.404Z,98695.42
2022-08-19T20:19:37.274Z,98700.27
2022-08-19T20:22:06.731Z,98708.52
2022-08-19T20:24:36.376Z,98706.95
2022-08-19T20:27:05.553Z,98694.67
2022-08-19T20:29:39.287Z,98682.98
2022-08-19T20:32:10.683Z,98685.09
2022-08-19T20:34:40.605Z,98694.50
2022-08-19T20:37:11.513Z,98695.19
2022-08-19T20:39:39.709Z,98693.78
2022-08-19T20:42:07.907Z,98699.95
2022-08-19T20:44:37.223Z,98710.52
2022-08-19T20:47:05.644Z,98701.48
2022-08-19T20:49:35.420Z,98706.20
2022-08-19T20:52:05.153Z,98701.94
2022-08-19T20:54:33.628Z,98700.90
2022-08-19T20:57:03.875Z,98695.86
2022-08-19T20:59:32.005Z,98701.64
2022-08-19T21:02:00.179Z,98709.20
2022-08-19T21:04:28.288Z,98713.69
2022-08-19T21:06:56.531Z,98713.60
2022-08-19T21:09:24.853Z,98716.17
2022-08-19T21:11:53.686Z,98712.77
2022-08-19T21:14:22.806Z,98705.98
2022-08-19T21:16:51.063Z,98705.97
2022-08-19T21:19:23.715Z,98703.13
2022-08-19T21:21:52.678Z,98701.97
2022-08-19T21:24:21.374Z,98702.53
2022-08-19T21:26:54.617Z,98704.06
2022-08-19T21:29:23.284Z,98705.04
2022-08-19T21:31:52.099Z,98711.16
2022-08-19T21:34:20.393Z,98706.78
2022-08-19T21:36:48.644Z,98705.84
2022-08-19T21:39:16.817Z,98707.98
2022-08-19T21:41:45.038Z,98715.81
2022-08-19T21:44:13.314Z,98713.20
2022-08-19T21:46:41.400Z,98712.81
2022-08-19T21:49:09.588Z,98711.20
2022-08-19T21:51:38.500Z,98705.73
2022-08-19T21:54:07.174Z,98705.73
2022-08-19T21:56:42.371Z,98706.73
2022-08-19T21:59:10.652Z,98703.39
2022-08-19T22:01:38.855Z,98701.80
2022-08-19T22:04:07.053Z,98699.38
2022-08-19T22:06:35.628Z,98695.79
2022-08-19T22:09:03.818Z,98700.16
2022-08-19T22:11:32.436Z,98694.44
2022-08-19T22:14:00.589Z,98689.55
2022-08-19T22:16:32.847Z,98688.24
2022-08-19T22:19:00.972Z,98693.06
2022-08-19T22:21:40.271Z,98694.39
2022-08-19T22:24:10.151Z,98699.27
2022-08-19T22:26:39.742Z,98702.43
2022-08-19T22:29:08.443Z,98702.20
2022-08-19T22:31:39.798Z,98701.59
2022-08-19T22:34:08.024Z,98701.63
2022-08-19T22:36:36.403Z,98702.51
2022-08-19T22:39:07.731Z,98702.92
2022-08-19T22:41:35.995Z,98700.25
2022-08-19T22:44:04.398Z,98702.14
2022-08-19T22:46:33.773Z,98701.21
2022-08-19T22:49:01.962Z,98699.36
2022-08-19T22:51:48.872Z,98699.48
2022-08-19T22:54:17.099Z,98703.56
2022-08-19T22:56:45.874Z,98704.30
2022-08-19T22:59:14.162Z,98705.11
2022-08-19T23:01:42.322Z,98705.11
2022-08-19T23:04:10.751Z,98709.38
2022-08-19T23:06:41.867Z,98712.91
2022-08-19T23:09:10.878Z,98709.72
2022-08-19T23:11:45.466Z,98708.41
2022-08-19T23:14:15.466Z,98709.42
2022-08-19T23:16:50.541Z,98703.26
2022-08-19T23:19:20.677Z,98708.11
2022-08-19T23:21:49.339Z,98707.40
2022-08-19T23:24:17.514Z,98706.80
2022-08-19T23:27:04.775Z,98699.98
2022-08-19T23:29:52.524Z,98694.00
2022-08-19T23:32:22.057Z,98694.05
2022-08-19T23:34:50.173Z,98707.81
2022-08-19T23:37:18.505Z,98707.53
2022-08-19T23:39:46.726Z,98710.00
2022-08-19T23:42:14.841Z,98715.70
2022-08-19T23:44:51.316Z,98714.10
2022-08-19T23:47:21.018Z,98711.31
2022-08-19T23:49:50.766Z,98708.87
2022-08-19T23:52:19.730Z,98702.35
2022-08-19T23:54:48.018Z,98701.73
2022-08-19T23:57:16.156Z,98701.31
2022-08-19T23:59:45.780Z,98702.71
